Time;durP1;ratioP1;P1;durP2;ratioP2;P2;SDS_P1;SDS_P2;PMS_P1;PMS_P2;Temp;Humidity;BMP_temperature;BMP_pressure;BME280_temperature;BME280_humidity;BME280_pressure;Samples;Min_cycle;Max_cycle;Signal;HPM_P1;HPM_P2
2021/01/27 00:02:34;;;;;;;8.63;5.70;;;-0.50;92.30;;;;;;5124912;27;27394;-50
2021/01/27 00:05:25;;;;;;;9.18;5.32;;;-0.50;92.30;;;;;;5124747;27;27437;-48
2021/01/27 00:08:09;;;;;;;9.57;5.68;;;-0.50;92.30;;;;;;5124983;27;27410;-49
2021/01/27 00:10:54;;;;;;;9.68;6.00;;;-0.50;92.30;;;;;;5123165;27;27583;-48
2021/01/27 00:13:39;;;;;;;11.07;5.78;;;-0.60;92.30;;;;;;5126797;27;27393;-48
2021/01/27 00:16:23;;;;;;;10.52;5.45;;;-0.60;92.30;;;;;;5128722;27;27546;-45
2021/01/27 00:19:07;;;;;;;7.40;5.40;;;-0.60;92.30;;;;;;5125160;27;27328;-50
2021/01/27 00:21:52;;;;;;;8.18;5.43;;;-0.60;92.40;;;;;;5128663;27;27315;-46
2021/01/27 00:24:37;;;;;;;10.98;6.30;;;-0.60;92.30;;;;;;5128344;27;27367;-48
2021/01/27 00:27:21;;;;;;;10.15;6.13;;;-0.60;92.40;;;;;;5125149;27;27574;-50
2021/01/27 00:30:17;;;;;;;9.13;5.53;;;-0.60;92.40;;;;;;5128570;27;27336;-49
2021/01/27 00:33:02;;;;;;;11.35;5.82;;;-0.60;92.40;;;;;;5127830;27;27382;-49
2021/01/27 00:35:48;;;;;;;10.13;6.57;;;-0.60;92.30;;;;;;5128182;27;27385;-50
2021/01/27 00:38:33;;;;;;;10.93;6.10;;;-0.70;92.30;;;;;;5128404;27;27386;-52
2021/01/27 00:41:18;;;;;;;9.20;5.53;;;-0.70;92.20;;;;;;5125081;27;27312;-49
2021/01/27 00:44:02;;;;;;;7.68;5.57;;;-0.70;92.20;;;;;;5128392;27;27337;-49
2021/01/27 00:46:48;;;;;;;12.05;5.68;;;-0.70;92.20;;;;;;5127968;27;27405;-49
2021/01/27 00:49:32;;;;;;;9.52;6.13;;;-0.70;92.20;;;;;;5127910;27;27413;-50
2021/01/27 00:52:17;;;;;;;8.10;5.68;;;-0.70;92.20;;;;;;5124723;27;27377;-49
2021/01/27 00:55:13;;;;;;;10.68;6.03;;;-0.80;92.10;;;;;;5124146;27;27325;-53
2021/01/27 00:57:58;;;;;;;9.15;6.13;;;-0.80;92.10;;;;;;5126978;27;28028;-47
2021/01/27 01:00:43;;;;;;;10.07;5.38;;;-0.80;92.10;;;;;;5125199;27;27362;-47
2021/01/27 01:03:35;;;;;;;10.25;6.45;;;-0.80;92.10;;;;;;5124042;27;27462;-48
2021/01/27 01:06:20;;;;;;;12.20;6.75;;;-0.80;92.20;;;;;;5127694;27;27475;-47
2021/01/27 01:09:04;;;;;;;13.35;7.65;;;-0.90;92.20;;;;;;5126868;27;27560;-48
2021/01/27 01:11:49;;;;;;;15.15;7.55;;;-0.90;92.30;;;;;;5126823;27;27426;-45
2021/01/27 01:14:34;;;;;;;14.50;7.85;;;-0.90;92.30;;;;;;5126882;27;27463;-48
2021/01/27 01:17:18;;;;;;;14.02;8.25;;;-0.90;92.40;;;;;;5123379;27;27444;-47
2021/01/27 01:20:04;;;;;;;15.45;8.68;;;-0.90;92.40;;;;;;5126599;27;27959;-48
2021/01/27 01:22:50;;;;;;;17.95;9.27;;;-0.90;92.50;;;;;;5126296;27;27472;-49
2021/01/27 01:25:35;;;;;;;18.63;10.27;;;-0.90;92.50;;;;;;5125881;27;27379;-49
2021/01/27 01:28:21;;;;;;;21.38;10.63;;;-0.90;92.60;;;;;;5124808;27;27489;-49
2021/01/27 01:31:05;;;;;;;17.30;10.13;;;-0.90;92.60;;;;;;5126176;27;27875;-47
2021/01/27 01:33:50;;;;;;;21.33;9.90;;;-0.90;92.60;;;;;;5126096;27;27574;-49
2021/01/27 01:36:34;;;;;;;18.52;10.15;;;-0.90;92.60;;;;;;5126406;27;27452;-49
2021/01/27 01:39:19;;;;;;;16.60;9.93;;;-0.90;92.60;;;;;;5126059;27;27476;-48
2021/01/27 01:42:03;;;;;;;20.98;10.82;;;-0.90;92.60;;;;;;5126107;27;27386;-52
2021/01/27 01:44:48;;;;;;;19.55;10.50;;;-0.90;92.60;;;;;;5125909;27;27538;-48
2021/01/27 01:47:33;;;;;;;17.70;9.40;;;-0.90;92.60;;;;;;5125760;27;27469;-47
2021/01/27 01:50:17;;;;;;;18.73;10.23;;;-0.90;92.60;;;;;;5125821;27;27406;-48
2021/01/27 01:53:01;;;;;;;16.02;9.80;;;-0.90;92.70;;;;;;5125293;27;27492;-49
2021/01/27 01:55:46;;;;;;;18.98;10.45;;;-0.90;92.70;;;;;;5124726;27;27471;-47
2021/01/27 01:58:31;;;;;;;16.95;9.35;;;-0.90;92.70;;;;;;5110749;27;27447;-49
2021/01/27 02:01:16;;;;;;;17.13;9.73;;;-0.90;92.70;;;;;;5125156;27;27395;-48
2021/01/27 02:04:00;;;;;;;15.00;9.05;;;-0.90;92.70;;;;;;5121387;27;27484;-52
2021/01/27 02:06:44;;;;;;;15.35;8.60;;;-0.90;92.90;;;;;;5122445;27;27410;-48
2021/01/27 02:09:29;;;;;;;20.20;10.20;;;-0.90;92.80;;;;;;5095040;27;828227;-46
2021/01/27 02:12:32;;;;;;;17.50;9.30;;;-0.90;92.80;;;;;;5126973;27;27385;-48
2021/01/27 02:15:47;;;;;;;17.02;8.48;;;-0.90;92.80;;;;;;5126845;27;27887;-50
2021/01/27 02:18:40;;;;;;;16.20;8.55;;;-0.90;92.80;;;;;;5126845;27;27327;-49
2021/01/27 02:21:37;;;;;;;13.75;7.78;;;-0.90;92.80;;;;;;5126854;27;27447;-49
2021/01/27 02:24:43;;;;;;;14.23;7.07;;;-0.90;92.80;;;;;;5126450;27;27323;-48
2021/01/27 02:27:38;;;;;;;14.30;8.02;;;-0.90;92.80;;;;;;5126198;27;27852;-49
2021/01/27 02:30:38;;;;;;;13.95;7.53;;;-0.90;92.80;;;;;;5126320;27;27400;-50
2021/01/27 02:33:38;;;;;;;18.38;7.88;;;-0.90;92.70;;;;;;5126557;27;27513;-48
2021/01/27 02:36:24;;;;;;;15.23;7.82;;;-0.90;92.70;;;;;;5125356;27;27347;-49
2021/01/27 02:39:20;;;;;;;11.50;7.03;;;-0.90;92.70;;;;;;5125692;27;27860;-51
2021/01/27 02:42:22;;;;;;;13.30;7.45;;;-1.00;92.70;;;;;;5125452;27;27375;-48
2021/01/27 02:45:35;;;;;;;12.75;7.65;;;-1.00;92.70;;;;;;5113470;27;27378;-49
2021/01/27 02:48:28;;;;;;;10.32;6.00;;;-1.00;92.60;;;;;;5121763;27;27488;-48
2021/01/27 02:51:22;;;;;;;13.88;6.78;;;-1.00;92.80;;;;;;5124817;27;27921;-49
2021/01/27 02:54:18;;;;;;;10.85;6.20;;;-1.00;92.60;;;;;;5125439;27;27480;-50
2021/01/27 02:57:11;;;;;;;9.50;6.18;;;-1.00;92.60;;;;;;5125182;27;27413;-50
2021/01/27 03:00:02;;;;;;;11.70;6.43;;;-1.10;92.60;;;;;;5126143;27;27471;-49
2021/01/27 03:02:57;;;;;;;10.55;5.78;;;-1.00;92.60;;;;;;5126012;27;27324;-49
2021/01/27 03:05:43;;;;;;;9.43;5.80;;;-1.10;92.70;;;;;;5126022;27;27319;-47
2021/01/27 03:08:35;;;;;;;9.70;6.28;;;-1.10;92.70;;;;;;5125122;27;27393;-48
2021/01/27 03:11:21;;;;;;;9.38;5.70;;;-1.10;92.70;;;;;;5125903;27;27402;-48
2021/01/27 03:14:06;;;;;;;9.18;5.68;;;-1.10;92.70;;;;;;5125603;27;27369;-49
2021/01/27 03:17:02;;;;;;;11.38;5.72;;;-1.10;92.80;;;;;;5125494;27;27394;-47
2021/01/27 03:20:05;;;;;;;8.32;4.80;;;-1.10;92.80;;;;;;5124811;27;27373;-48
2021/01/27 03:23:25;;;;;;;9.18;5.03;;;-1.10;92.80;;;;;;5107021;27;27415;-48
2021/01/27 03:26:15;;;;;;;9.68;4.97;;;-1.10;92.90;;;;;;5124791;27;27413;-49
2021/01/27 03:29:31;;;;;;;7.70;5.70;;;-1.10;92.90;;;;;;5125378;27;27462;-50
2021/01/27 03:32:28;;;;;;;9.23;4.43;;;-1.10;92.90;;;;;;5125439;27;27373;-48
2021/01/27 03:35:40;;;;;;;8.18;4.38;;;-1.10;93.00;;;;;;5125346;27;27306;-47
2021/01/27 03:38:32;;;;;;;8.50;4.50;;;-1.10;93.00;;;;;;5125250;27;27864;-48
2021/01/27 03:41:33;;;;;;;8.27;5.43;;;-1.00;93.00;;;;;;5125484;27;27411;-52
2021/01/27 03:44:27;;;;;;;9.27;4.85;;;-1.10;93.00;;;;;;5124809;27;27394;-49
2021/01/27 03:47:19;;;;;;;6.80;4.70;;;-1.00;93.10;;;;;;5107402;27;27335;-48
2021/01/27 03:50:07;;;;;;;7.25;4.60;;;-1.00;93.10;;;;;;5124400;27;27500;-48
2021/01/27 03:52:59;;;;;;;9.00;5.00;;;-1.00;93.10;;;;;;5125333;27;27323;-49
2021/01/27 03:56:26;;;;;;;7.18;4.75;;;-1.00;93.20;;;;;;5125079;27;27399;-47
2021/01/27 03:59:11;;;;;;;7.65;4.50;;;-1.00;93.20;;;;;;5122354;27;27420;-47
2021/01/27 04:01:56;;;;;;;7.60;4.28;;;-1.00;93.20;;;;;;5124943;27;27370;-52
2021/01/27 04:04:41;;;;;;;7.10;4.97;;;-1.00;93.20;;;;;;5124204;27;27382;-48
2021/01/27 04:07:25;;;;;;;9.10;4.90;;;-1.00;93.20;;;;;;5125153;27;27312;-48
2021/01/27 04:10:10;;;;;;;7.68;4.63;;;-1.00;93.30;;;;;;5124212;27;27614;-47
2021/01/27 04:12:55;;;;;;;8.52;4.55;;;-0.90;93.30;;;;;;5124715;27;27506;-48
2021/01/27 04:15:40;;;;;;;7.78;5.03;;;-0.90;93.40;;;;;;5124729;27;27469;-50
2021/01/27 04:18:25;;;;;;;7.80;4.75;;;-0.90;93.40;;;;;;5125155;27;27439;-52
2021/01/27 04:21:09;;;;;;;7.03;4.60;;;-0.90;93.40;;;;;;5124770;27;27472;-47
2021/01/27 04:23:53;;;;;;;7.15;4.55;;;-0.90;93.40;;;;;;5120588;27;27820;-48
2021/01/27 04:26:38;;;;;;;6.57;4.20;;;-0.90;93.40;;;;;;5124960;27;27395;-49
2021/01/27 04:29:29;;;;;;;8.48;4.15;;;-0.90;93.40;;;;;;5124622;27;27407;-49
2021/01/27 04:32:14;;;;;;;7.07;4.25;;;-0.80;93.40;;;;;;5124642;27;27410;-48
2021/01/27 04:34:58;;;;;;;8.13;4.68;;;-0.80;93.40;;;;;;5124785;27;28066;-47
2021/01/27 04:37:43;;;;;;;6.32;4.22;;;-0.80;93.50;;;;;;5124730;27;27399;-49
2021/01/27 04:40:36;;;;;;;8.82;4.80;;;-0.80;93.50;;;;;;5124187;27;27392;-49
2021/01/27 04:43:28;;;;;;;6.32;4.43;;;-0.80;93.50;;;;;;5121227;27;27372;-50
2021/01/27 04:46:18;;;;;;;8.02;4.50;;;-0.80;93.50;;;;;;5124347;27;27446;-48
2021/01/27 04:49:11;;;;;;;6.82;4.93;;;-0.80;93.50;;;;;;5124117;27;27331;-48
2021/01/27 04:52:13;;;;;;;8.02;5.40;;;-0.80;93.50;;;;;;5124697;27;27377;-48
2021/01/27 04:55:06;;;;;;;8.73;4.40;;;-0.70;93.60;;;;;;5123834;27;27418;-47
2021/01/27 04:58:09;;;;;;;6.90;5.00;;;-0.70;93.60;;;;;;5123429;27;27843;-48
2021/01/27 05:00:58;;;;;;;9.55;4.65;;;-0.70;93.60;;;;;;5127913;27;27417;-49
2021/01/27 05:03:56;;;;;;;6.35;4.28;;;-0.70;93.60;;;;;;5128062;27;27483;-49
2021/01/27 05:06:41;;;;;;;8.82;4.90;;;-0.70;93.60;;;;;;5127423;27;27506;-48
2021/01/27 05:09:43;;;;;;;6.32;4.53;;;-0.70;93.60;;;;;;5126086;27;27968;-46
2021/01/27 05:12:47;;;;;;;8.65;4.50;;;-0.70;93.60;;;;;;5123805;27;27390;-50
2021/01/27 05:15:32;;;;;;;6.05;4.28;;;-0.60;93.60;;;;;;5126897;27;27459;-49
2021/01/27 05:18:16;;;;;;;7.35;4.55;;;-0.60;93.60;;;;;;5127784;27;27460;-48
2021/01/27 05:21:01;;;;;;;8.15;4.68;;;-0.60;93.60;;;;;;5126972;27;27406;-50
2021/01/27 05:23:46;;;;;;;5.82;3.78;;;-0.60;93.60;;;;;;5127625;27;27426;-47
2021/01/27 05:26:44;;;;;;;6.45;4.65;;;-0.60;93.60;;;;;;5127752;27;27465;-48
2021/01/27 05:29:43;;;;;;;7.03;4.43;;;-0.60;93.60;;;;;;5123243;27;27419;-48
2021/01/27 05:32:27;;;;;;;7.72;4.45;;;-0.60;93.60;;;;;;5126753;27;27397;-47
2021/01/27 05:35:26;;;;;;;6.10;4.18;;;-0.60;93.60;;;;;;5127249;27;27521;-45
2021/01/27 05:38:24;;;;;;;8.00;4.80;;;-0.60;93.60;;;;;;5104276;28;27456;-49
2021/01/27 05:41:27;;;;;;;8.43;4.32;;;-0.50;93.70;;;;;;5104699;28;27523;-49
2021/01/27 05:44:15;;;;;;;6.63;4.85;;;-0.50;93.70;;;;;;5090495;28;27487;-47
2021/01/27 05:47:32;;;;;;;9.52;5.30;;;-0.60;93.70;;;;;;5104609;28;27462;-48
2021/01/27 05:50:36;;;;;;;6.47;4.78;;;-0.50;93.70;;;;;;5101784;28;27397;-48
2021/01/27 05:53:20;;;;;;;8.95;5.00;;;-0.50;93.70;;;;;;5090996;28;27508;-47
2021/01/27 05:56:15;;;;;;;8.50;5.15;;;-0.50;93.70;;;;;;5104623;28;27454;-47
2021/01/27 05:59:06;;;;;;;9.20;5.28;;;-0.50;93.70;;;;;;5104491;28;27453;-48
2021/01/27 06:01:51;;;;;;;8.13;5.60;;;-0.50;93.70;;;;;;5104670;28;27548;-48
2021/01/27 06:04:37;;;;;;;8.63;5.55;;;-0.40;93.80;;;;;;5089635;28;27664;-45
2021/01/27 06:07:24;;;;;;;10.10;5.50;;;-0.50;93.80;;;;;;5104397;28;27527;-47
2021/01/27 06:10:22;;;;;;;10.80;5.47;;;-0.40;93.80;;;;;;5124595;27;27521;-50
2021/01/27 06:13:24;;;;;;;9.65;5.93;;;-0.40;93.80;;;;;;5126986;27;27324;-49
2021/01/27 06:16:23;;;;;;;9.02;5.20;;;-0.40;93.80;;;;;;5126948;27;27550;-48
2021/01/27 06:19:14;;;;;;;11.65;6.75;;;-0.40;93.80;;;;;;5126792;27;27961;-49
2021/01/27 06:22:20;;;;;;;10.35;5.80;;;-0.40;93.80;;;;;;5126772;27;27406;-48
2021/01/27 06:25:16;;;;;;;12.85;7.03;;;-0.40;93.80;;;;;;5126830;27;27476;-48
2021/01/27 06:28:20;;;;;;;12.95;6.63;;;-0.40;93.80;;;;;;5126248;27;26948;-49
2021/01/27 06:31:10;;;;;;;15.70;7.53;;;-0.30;93.80;;;;;;5123287;27;28056;-50
2021/01/27 06:34:03;;;;;;;14.52;7.50;;;-0.30;93.80;;;;;;5126495;27;27404;-51
2021/01/27 06:36:53;;;;;;;10.98;6.53;;;-0.30;93.80;;;;;;5126595;27;27319;-51
2021/01/27 06:39:45;;;;;;;9.93;6.53;;;-0.30;93.80;;;;;;5126511;27;27315;-51
2021/01/27 06:42:40;;;;;;;16.45;7.20;;;-0.30;93.80;;;;;;5126101;27;27391;-49
2021/01/27 06:45:37;;;;;;;14.30;7.30;;;-0.30;93.80;;;;;;5125688;27;27323;-47
2021/01/27 06:48:57;;;;;;;14.20;6.93;;;-0.30;93.80;;;;;;5126138;27;27450;-48
2021/01/27 06:52:03;;;;;;;14.43;6.72;;;-0.30;93.80;;;;;;5125636;27;27624;-50
2021/01/27 06:54:56;;;;;;;13.57;7.00;;;-0.30;93.80;;;;;;5126233;27;27908;-48
2021/01/27 06:57:50;;;;;;;10.88;6.43;;;-0.20;93.90;;;;;;5125533;27;27553;-50
2021/01/27 07:00:43;;;;;;;10.80;6.57;;;-0.20;93.90;;;;;;5126221;27;27424;-48
2021/01/27 07:03:58;;;;;;;14.20;7.90;;;-0.20;93.90;;;;;;5126063;27;27447;-48
2021/01/27 07:07:03;;;;;;;12.13;6.75;;;-0.20;93.90;;;;;;5126043;27;27415;-52
2021/01/27 07:10:01;;;;;;;9.85;6.13;;;-0.20;93.80;;;;;;5125150;27;27495;-48
2021/01/27 07:12:52;;;;;;;12.10;6.63;;;-0.20;93.80;;;;;;5125345;27;27316;-47
2021/01/27 07:15:51;;;;;;;11.00;5.97;;;-0.20;93.80;;;;;;5125956;27;27496;-48
2021/01/27 07:19:13;;;;;;;12.02;6.60;;;-0.10;93.90;;;;;;5125876;27;27363;-48
2021/01/27 07:22:10;;;;;;;12.45;6.47;;;-0.10;93.90;;;;;;5121729;27;27556;-50
2021/01/27 07:25:05;;;;;;;9.23;5.97;;;-0.10;93.90;;;;;;5125141;27;27623;-48
2021/01/27 07:27:59;;;;;;;18.40;6.72;;;-0.10;93.90;;;;;;5124585;27;27553;-48
2021/01/27 07:31:17;;;;;;;10.82;6.03;;;-0.10;93.90;;;;;;5122354;27;27405;-47
2021/01/27 07:34:22;;;;;;;9.63;5.75;;;-0.10;93.80;;;;;;5125595;27;27343;-51
2021/01/27 07:37:43;;;;;;;10.80;6.45;;;0.00;93.90;;;;;;5125392;27;27371;-47
2021/01/27 07:40:50;;;;;;;9.57;6.05;;;-0.10;93.80;;;;;;5124741;27;27478;-47
2021/01/27 07:43:48;;;;;;;9.43;5.65;;;0.00;94.00;;;;;;5123826;27;27403;-49
2021/01/27 07:47:00;;;;;;;8.48;5.25;;;0.00;93.80;;;;;;5125052;27;27359;-48
2021/01/27 07:49:56;;;;;;;10.50;6.05;;;0.00;93.80;;;;;;5125168;27;27487;-47
2021/01/27 07:53:14;;;;;;;8.05;5.80;;;0.00;93.80;;;;;;5124820;27;27482;-46
2021/01/27 07:56:29;;;;;;;8.05;5.72;;;0.10;93.80;;;;;;5125088;27;27415;-49
2021/01/27 07:59:24;;;;;;;10.23;6.25;;;0.10;93.80;;;;;;5125403;27;27355;-48
2021/01/27 08:02:26;;;;;;;8.45;5.80;;;0.10;93.80;;;;;;5124397;27;27352;-47
2021/01/27 08:05:11;;;;;;;11.73;5.30;;;0.10;93.80;;;;;;5124370;27;27426;-46
2021/01/27 08:08:13;;;;;;;9.25;5.22;;;0.20;93.80;;;;;;5124132;27;27454;-48
2021/01/27 08:11:13;;;;;;;10.25;4.75;;;0.20;93.80;;;;;;5124318;27;27449;-47
2021/01/27 08:13:57;;;;;;;9.27;5.60;;;0.20;93.80;;;;;;5125264;27;27363;-49
2021/01/27 08:16:47;;;;;;;9.07;5.28;;;0.20;93.70;;;;;;5124905;27;27439;-47
2021/01/27 08:19:32;;;;;;;8.88;5.55;;;0.20;93.70;;;;;;5124349;27;28030;-47
2021/01/27 08:22:32;;;;;;;9.30;5.63;;;0.20;93.70;;;;;;5109713;27;27489;-49
2021/01/27 08:25:54;;;;;;;8.50;5.53;;;0.20;93.70;;;;;;5124088;27;27319;-47
2021/01/27 08:28:39;;;;;;;9.20;6.07;;;0.30;93.70;;;;;;5124555;27;26982;-48
2021/01/27 08:31:24;;;;;;;13.65;5.03;;;0.30;93.70;;;;;;5124972;27;27859;-47
2021/01/27 08:34:08;;;;;;;10.13;5.70;;;0.30;93.70;;;;;;5122496;27;27407;-48
2021/01/27 08:36:53;;;;;;;9.18;6.68;;;0.30;93.70;;;;;;5110076;27;27441;-49
2021/01/27 08:39:37;;;;;;;11.85;6.13;;;0.30;93.70;;;;;;5128234;27;27457;-49
2021/01/27 08:42:25;;;;;;;11.07;6.40;;;0.30;93.80;;;;;;5128390;27;27413;-49
2021/01/27 08:45:31;;;;;;;13.25;6.28;;;0.30;93.80;;;;;;5127305;27;27460;-48
2021/01/27 08:48:15;;;;;;;10.55;5.65;;;0.40;93.80;;;;;;5124603;27;27498;-47
2021/01/27 08:51:00;;;;;;;8.48;5.47;;;0.40;93.80;;;;;;5126577;27;27497;-47
2021/01/27 08:53:52;;;;;;;11.52;5.82;;;0.40;93.80;;;;;;5128264;27;28084;-48
2021/01/27 08:57:14;;;;;;;8.05;5.38;;;0.40;93.80;;;;;;5128174;27;27415;-47
2021/01/27 09:00:01;;;;;;;8.18;4.82;;;0.40;93.80;;;;;;5128229;27;27399;-47
2021/01/27 09:03:04;;;;;;;8.38;5.47;;;0.40;93.90;;;;;;5128146;27;27415;-48
2021/01/27 09:05:49;;;;;;;9.93;5.85;;;0.50;93.90;;;;;;5127792;27;27395;-49
2021/01/27 09:08:33;;;;;;;8.02;5.47;;;0.50;93.90;;;;;;5127110;27;27450;-48
2021/01/27 09:11:18;;;;;;;8.48;4.85;;;0.50;93.80;;;;;;5126981;27;27368;-48
